Wolfforth, TX (79382)

2:21 PM CST on December 26, 2014 (GMT -0600)
Preston Estates | Change Station
CLOSE
Current Station
Personal Weather Station
Location: Wolfforth, TX
Elevation: 3323 ft
Nearby Weather Stations

Elev 3323 ft 33.53 °N, 101.99 °W | Updated 0 second ago

Mostly Cloudy
Mostly Cloudy
50.0 °F
Feels Like 50.0 °F
N
2.0
Wind Variable Wind from NNW
Gusts 10.0 mph

Today
High -- | Low -- °F
--% Chance of Precip.
Yesterday
High -- | Low -- °F
Precip. -- in
7:50 AM 5:46 PM
Waxing Crescent, 29% visible
Pressure 29.82 in
Visibility 9.0 miles
Clouds Mostly Cloudy 11000 ft
Mostly Cloudy 26000 ft
Dew Point 30 °F
Humidity 47%
Rainfall 0.00 in
Snow Depth Not available.
UV 2 out of 12
Pollen 8.70 out of 12
Air Quality Not available.
Flu Activity Not available.
METAR KLBB 261953Z 35007G17KT 9SM BKN110 BKN260 09/M03 A2986 RMK AO2 SLP098 T00941028

More Conditions Fewer Conditions

Pressure 29.82 in
Visibility 9.0 miles
Clouds Mostly Cloudy 11000 ft
Mostly Cloudy 26000 ft
Dew Point 30 °F
Humidity 47%
Rainfall 0.00 in
Snow Depth Not available.
UV 2 out of 12
Pollen 8.70 out of 12
Air Quality Not available.
Flu Activity Not available.
METAR KLBB 261953Z 35007G17KT 9SM BKN110 BKN260 09/M03 A2986 RMK AO2 SLP098 T00941028

More Conditions Fewer Conditions

10-Day Weather Forecast

Almanac

Astronomy

Dec. 26, 2014 Rise Set
Actual Time
Civil Twilight
Nautical Twilight
Astronomical Twilight
Moon
Length of Visible Light
Length of Day
Tomorrow will be .
, % of the Moon is Illuminated

Today's Extremes

State Highs State Lows

Community

WunderPhotos

Upload Photos

1,780,693 photos uploaded!

WunderBlogs® & News

Nearby

Air Quality

  Air Quality AQ Index Pollutant
Not available.

Snow Depth

Station Depth Elevation

Earthquake Activity

City Distance Mag. Time & Date
Minimum magnitude displayed is 2.5.

Coastal Water Temperatures

Place Temperature

Nearby Weather Stations